Aviation Digital Data Service (ADDS)

Output produced by METARs form (1406 UTC 13 December 2019)
found at http://www.aviationweather.gov/metar/data/
 
METAR text: KMSP 131359Z 00000KT 3/4SM R30L/P6000FT BR FEW095 SCT130 M12/M14 A2994 RMK AO2 TWR VIS 3 T11171139
Conditions at: KMSP (MINNEAPOLIS , MN, US) observed 1359 UTC 13 December 2019
Temperature: -11.7°C (11°F)
Dewpoint: -13.9°C ( 7°F) [RH = 84%]
Pressure (altimeter): 29.94 inches Hg (1014.0 mb)
Winds: calm
Visibility: 0.75 miles (1.21 km)
Ceiling: at least 12,000 feet AGL
Clouds: few clouds at 9500 feet AGL
scattered clouds at 13000 feet AGL
Weather: BR  (mist)

METAR text: KMSP 131353Z 23003KT 1 3/4SM BR FEW095 SCT130 M12/M14 A2995 RMK AO2 TWR VIS 3 SLP157 T11171139
Conditions at: KMSP (MINNEAPOLIS , MN, US) observed 1353 UTC 13 December 2019
Temperature: -11.7°C (11°F)
Dewpoint: -13.9°C ( 7°F) [RH = 84%]
Pressure (altimeter): 29.95 inches Hg (1014.3 mb)
[Sea-level pressure: 1015.7 mb]
Winds: from the SW (230 degrees) at 3 MPH (3 knots; 1.5 m/s)
Visibility: 1.75 miles (2.82 km)
Ceiling: at least 12,000 feet AGL
Clouds: few clouds at 9500 feet AGL
scattered clouds at 13000 feet AGL
Weather: BR  (mist)

METAR text: KMSP 131253Z 00000KT 6SM BR FEW095 BKN130 M12/M14 A2995 RMK AO2 SLP159 T11171139
Conditions at: KMSP (MINNEAPOLIS , MN, US) observed 1253 UTC 13 December 2019
Temperature: -11.7°C (11°F)
Dewpoint: -13.9°C ( 7°F) [RH = 84%]
Pressure (altimeter): 29.95 inches Hg (1014.3 mb)
[Sea-level pressure: 1015.9 mb]
Winds: calm
Visibility: 6 miles (10 km)
Ceiling: 13000 feet AGL
Clouds: few clouds at 9500 feet AGL
broken clouds at 13000 feet AGL
Weather: BR  (mist)

METAR text: KMSP 131153Z 18003KT 5SM BR FEW015 SCT180 M12/M14 A2996 RMK AO2 SLP163 4/008 70012 I1000 I6000 T11171139 11083 21122 56015
Conditions at: KMSP (MINNEAPOLIS , MN, US) observed 1153 UTC 13 December 2019
Temperature: -11.7°C (11°F)
Dewpoint: -13.9°C ( 7°F) [RH = 84%]
Pressure (altimeter): 29.96 inches Hg (1014.6 mb)
[Sea-level pressure: 1016.3 mb]
Winds: from the S (180 degrees) at 3 MPH (3 knots; 1.5 m/s)
Visibility: 5 miles ( 8 km)
Ceiling: at least 12,000 feet AGL
Clouds: few clouds at 1500 feet AGL
scattered clouds at 18000 feet AGL
Weather: BR  (mist)

METAR text: KMSP 131053Z 00000KT 5SM BR FEW180 M12/M13 A2997 RMK AO2 SLP167 I1000 T11171133
Conditions at: KMSP (MINNEAPOLIS , MN, US) observed 1053 UTC 13 December 2019
Temperature: -11.7°C (11°F)
Dewpoint: -13.3°C ( 8°F) [RH = 88%]
Pressure (altimeter): 29.97 inches Hg (1015.0 mb)
[Sea-level pressure: 1016.7 mb]
Winds: calm
Visibility: 5 miles ( 8 km)
Ceiling: at least 12,000 feet AGL
Clouds: few clouds at 18000 feet AGL
Weather: BR  (mist)

METAR text: KMSP 130953Z 13004KT 5SM BR SCT180 M11/M13 A2998 RMK AO2 SLP170 T11111133
Conditions at: KMSP (MINNEAPOLIS , MN, US) observed 0953 UTC 13 December 2019
Temperature: -11.1°C (12°F)
Dewpoint: -13.3°C ( 8°F) [RH = 84%]
Pressure (altimeter): 29.98 inches Hg (1015.3 mb)
[Sea-level pressure: 1017.0 mb]
Winds: from the SE (130 degrees) at 5 MPH (4 knots; 2.1 m/s)
Visibility: 5 miles ( 8 km)
Ceiling: at least 12,000 feet AGL
Clouds: scattered clouds at 18000 feet AGL
Weather: BR  (mist)

METAR text: KMSP 130853Z 00000KT 6SM HZ FEW004 SCT180 M10/M13 A3001 RMK AO2 SLP178 T11001128 58005
Conditions at: KMSP (MINNEAPOLIS , MN, US) observed 0853 UTC 13 December 2019
Temperature: -10.0°C (14°F)
Dewpoint: -12.8°C ( 9°F) [RH = 80%]
Pressure (altimeter): 30.01 inches Hg (1016.3 mb)
[Sea-level pressure: 1017.8 mb]
Winds: calm
Visibility: 6 miles (10 km)
Ceiling: at least 12,000 feet AGL
Clouds: few clouds at 400 feet AGL
scattered clouds at 18000 feet AGL
Weather: HZ  (haze)

METAR text: KMSP 130753Z 26003KT 7SM CLR M09/M12 A3002 RMK AO2 SLP181 T10941122
Conditions at: KMSP (MINNEAPOLIS , MN, US) observed 0753 UTC 13 December 2019
Temperature: -9.4°C (15°F)
Dewpoint: -12.2°C (10°F) [RH = 80%]
Pressure (altimeter): 30.02 inches Hg (1016.7 mb)
[Sea-level pressure: 1018.1 mb]
Winds: from the W (260 degrees) at 3 MPH (3 knots; 1.5 m/s)
Visibility: 7 miles (11 km)
Ceiling: at least 12,000 feet AGL
Clouds: sky clear below 12,000 feet AGL
Weather: no significant weather observed at this time

METAR text: KMSP 130653Z 00000KT 9SM BKN042 M09/M12 A3002 RMK AO2 SLP180 T10891122
Conditions at: KMSP (MINNEAPOLIS , MN, US) observed 0653 UTC 13 December 2019
Temperature: -8.9°C (16°F)
Dewpoint: -12.2°C (10°F) [RH = 77%]
Pressure (altimeter): 30.02 inches Hg (1016.7 mb)
[Sea-level pressure: 1018.0 mb]
Winds: calm
Visibility: 9 miles (14 km)
Ceiling: 4200 feet AGL
Clouds: broken clouds at 4200 feet AGL
Weather: no significant weather observed at this time

METAR text: KMSP 130553Z 30004KT 9SM OVC044 M08/M12 A3002 RMK AO2 SLP182 4/008 T10831122 11078 21083 410721128 58009
Conditions at: KMSP (MINNEAPOLIS , MN, US) observed 0553 UTC 13 December 2019
Temperature: -8.3°C (17°F)
Dewpoint: -12.2°C (10°F) [RH = 73%]
Pressure (altimeter): 30.02 inches Hg (1016.7 mb)
[Sea-level pressure: 1018.2 mb]
Winds: from the WNW (300 degrees) at 5 MPH (4 knots; 2.1 m/s)
Visibility: 9 miles (14 km)
Ceiling: 4400 feet AGL
Clouds: overcast cloud deck at 4400 feet AGL
Weather: no significant weather observed at this time

METAR text: KMSP 130453Z 31003KT 9SM OVC045 M08/M12 A3004 RMK AO2 SLP187 T10781117
Conditions at: KMSP (MINNEAPOLIS , MN, US) observed 0453 UTC 13 December 2019
Temperature: -7.8°C (18°F)
Dewpoint: -11.7°C (11°F) [RH = 74%]
Pressure (altimeter): 30.04 inches Hg (1017.4 mb)
[Sea-level pressure: 1018.7 mb]
Winds: from the NW (310 degrees) at 3 MPH (3 knots; 1.5 m/s)
Visibility: 9 miles (14 km)
Ceiling: 4500 feet AGL
Clouds: overcast cloud deck at 4500 feet AGL
Weather: no significant weather observed at this time

METAR text: KMSP 130403Z 31004KT 9SM SCT016 OVC046 M08/M12 A3004 RMK AO2 T10781117
Conditions at: KMSP (MINNEAPOLIS , MN, US) observed 0403 UTC 13 December 2019
Temperature: -7.8°C (18°F)
Dewpoint: -11.7°C (11°F) [RH = 74%]
Pressure (altimeter): 30.04 inches Hg (1017.4 mb)
Winds: from the NW (310 degrees) at 5 MPH (4 knots; 2.1 m/s)
Visibility: 9 miles (14 km)
Ceiling: 4600 feet AGL
Clouds: scattered clouds at 1600 feet AGL
overcast cloud deck at 4600 feet AGL
Weather: no significant weather observed at this time

METAR text: KMSP 130353Z 30004KT 10SM BKN016 OVC046 M08/M12 A3005 RMK AO2 SLP191 T10831117
Conditions at: KMSP (MINNEAPOLIS , MN, US) observed 0353 UTC 13 December 2019
Temperature: -8.3°C (17°F)
Dewpoint: -11.7°C (11°F) [RH = 76%]
Pressure (altimeter): 30.05 inches Hg (1017.7 mb)
[Sea-level pressure: 1019.1 mb]
Winds: from the WNW (300 degrees) at 5 MPH (4 knots; 2.1 m/s)
Visibility: 10 or more miles (16+ km)
Ceiling: 1600 feet AGL
Clouds: broken clouds at 1600 feet AGL
overcast cloud deck at 4600 feet AGL
Weather: no significant weather observed at this time

METAR text: KMSP 130253Z 00000KT 9SM OVC047 M08/M12 A3005 RMK AO2 SLP192 T10781122 58002
Conditions at: KMSP (MINNEAPOLIS , MN, US) observed 0253 UTC 13 December 2019
Temperature: -7.8°C (18°F)
Dewpoint: -12.2°C (10°F) [RH = 71%]
Pressure (altimeter): 30.05 inches Hg (1017.7 mb)
[Sea-level pressure: 1019.2 mb]
Winds: calm
Visibility: 9 miles (14 km)
Ceiling: 4700 feet AGL
Clouds: overcast cloud deck at 4700 feet AGL
Weather: no significant weather observed at this time

METAR text: KMSP 130212Z 00000KT 9SM SCT016 OVC048 M08/M12 A3006 RMK AO2 T10781122
Conditions at: KMSP (MINNEAPOLIS , MN, US) observed 0212 UTC 13 December 2019
Temperature: -7.8°C (18°F)
Dewpoint: -12.2°C (10°F) [RH = 71%]
Pressure (altimeter): 30.06 inches Hg (1018.0 mb)
Winds: calm
Visibility: 9 miles (14 km)
Ceiling: 4800 feet AGL
Clouds: scattered clouds at 1600 feet AGL
overcast cloud deck at 4800 feet AGL
Weather: no significant weather observed at this time

METAR text: KMSP 130153Z 33004KT 10SM BKN016 OVC048 M08/M12 A3006 RMK AO2 SLP196 T10781122
Conditions at: KMSP (MINNEAPOLIS , MN, US) observed 0153 UTC 13 December 2019
Temperature: -7.8°C (18°F)
Dewpoint: -12.2°C (10°F) [RH = 71%]
Pressure (altimeter): 30.06 inches Hg (1018.0 mb)
[Sea-level pressure: 1019.6 mb]
Winds: from the NNW (330 degrees) at 5 MPH (4 knots; 2.1 m/s)
Visibility: 10 or more miles (16+ km)
Ceiling: 1600 feet AGL
Clouds: broken clouds at 1600 feet AGL
overcast cloud deck at 4800 feet AGL
Weather: no significant weather observed at this time

METAR text: KMSP 130135Z 33004KT 9SM BKN015 OVC048 M08/M12 A3006 RMK AO2 T10781122
Conditions at: KMSP (MINNEAPOLIS , MN, US) observed 0135 UTC 13 December 2019
Temperature: -7.8°C (18°F)
Dewpoint: -12.2°C (10°F) [RH = 71%]
Pressure (altimeter): 30.06 inches Hg (1018.0 mb)
Winds: from the NNW (330 degrees) at 5 MPH (4 knots; 2.1 m/s)
Visibility: 9 miles (14 km)
Ceiling: 1500 feet AGL
Clouds: broken clouds at 1500 feet AGL
overcast cloud deck at 4800 feet AGL
Weather: no significant weather observed at this time

METAR text: KMSP 130121Z 34005KT 9SM SCT016 OVC048 M08/M12 A3007 RMK AO2 T10781122
Conditions at: KMSP (MINNEAPOLIS , MN, US) observed 0121 UTC 13 December 2019
Temperature: -7.8°C (18°F)
Dewpoint: -12.2°C (10°F) [RH = 71%]
Pressure (altimeter): 30.07 inches Hg (1018.4 mb)
Winds: from the NNW (340 degrees) at 6 MPH (5 knots; 2.6 m/s)
Visibility: 9 miles (14 km)
Ceiling: 4800 feet AGL
Clouds: scattered clouds at 1600 feet AGL
overcast cloud deck at 4800 feet AGL
Weather: no significant weather observed at this time

METAR text: KMSP 130053Z 35004KT 9SM BKN016 OVC048 M08/M12 A3006 RMK AO2 SLP196 T10781117
Conditions at: KMSP (MINNEAPOLIS , MN, US) observed 0053 UTC 13 December 2019
Temperature: -7.8°C (18°F)
Dewpoint: -11.7°C (11°F) [RH = 74%]
Pressure (altimeter): 30.06 inches Hg (1018.0 mb)
[Sea-level pressure: 1019.6 mb]
Winds: from the N (350 degrees) at 5 MPH (4 knots; 2.1 m/s)
Visibility: 9 miles (14 km)
Ceiling: 1600 feet AGL
Clouds: broken clouds at 1600 feet AGL
overcast cloud deck at 4800 feet AGL
Weather: no significant weather observed at this time

METAR text: KMSP 122353Z 33007KT 230V010 10SM BKN017 OVC046 M08/M12 A3006 RMK AO2 SLP195 4/008 60000 T10781117 11072 21083 53015
Conditions at: KMSP (MINNEAPOLIS , MN, US) observed 2353 UTC 12 December 2019
Temperature: -7.8°C (18°F)
Dewpoint: -11.7°C (11°F) [RH = 74%]
Pressure (altimeter): 30.06 inches Hg (1018.0 mb)
[Sea-level pressure: 1019.5 mb]
Winds: from the NNW (330 degrees) at 8 MPH (7 knots; 3.6 m/s)
Visibility: 10 or more miles (16+ km)
Ceiling: 1700 feet AGL
Clouds: broken clouds at 1700 feet AGL
overcast cloud deck at 4600 feet AGL
Weather: no significant weather observed at this time

METAR text: KMSP 122305Z 35006KT 10SM BKN018 OVC047 M08/M12 A3004 RMK AO2 T10781117
Conditions at: KMSP (MINNEAPOLIS , MN, US) observed 2305 UTC 12 December 2019
Temperature: -7.8°C (18°F)
Dewpoint: -11.7°C (11°F) [RH = 74%]
Pressure (altimeter): 30.04 inches Hg (1017.4 mb)
Winds: from the N (350 degrees) at 7 MPH (6 knots; 3.1 m/s)
Visibility: 10 or more miles (16+ km)
Ceiling: 1800 feet AGL
Clouds: broken clouds at 1800 feet AGL
overcast cloud deck at 4700 feet AGL
Weather: no significant weather observed at this time

METAR text: KMSP 122253Z 36007KT 10SM FEW017 OVC047 M07/M12 A3004 RMK AO2 SLP187 T10721117
Conditions at: KMSP (MINNEAPOLIS , MN, US) observed 2253 UTC 12 December 2019
Temperature: -7.2°C (19°F)
Dewpoint: -11.7°C (11°F) [RH = 70%]
Pressure (altimeter): 30.04 inches Hg (1017.4 mb)
[Sea-level pressure: 1018.7 mb]
Winds: from the N (360 degrees) at 8 MPH (7 knots; 3.6 m/s)
Visibility: 10 or more miles (16+ km)
Ceiling: 4700 feet AGL
Clouds: few clouds at 1700 feet AGL
overcast cloud deck at 4700 feet AGL
Weather: no significant weather observed at this time

METAR text: KMSP 122153Z 02006KT 10SM FEW016 OVC045 M08/M12 A3003 RMK AO2 SLP184 T10781117
Conditions at: KMSP (MINNEAPOLIS , MN, US) observed 2153 UTC 12 December 2019
Temperature: -7.8°C (18°F)
Dewpoint: -11.7°C (11°F) [RH = 74%]
Pressure (altimeter): 30.03 inches Hg (1017.0 mb)
[Sea-level pressure: 1018.4 mb]
Winds: from the NNE (20 degrees) at 7 MPH (6 knots; 3.1 m/s)
Visibility: 10 or more miles (16+ km)
Ceiling: 4500 feet AGL
Clouds: few clouds at 1600 feet AGL
overcast cloud deck at 4500 feet AGL
Weather: no significant weather observed at this time

METAR text: KMSP 122053Z 35006KT 10SM SCT015 OVC043 M08/M12 A3001 RMK AO2 SLP180 60000 T10781117 50003
Conditions at: KMSP (MINNEAPOLIS , MN, US) observed 2053 UTC 12 December 2019
Temperature: -7.8°C (18°F)
Dewpoint: -11.7°C (11°F) [RH = 74%]
Pressure (altimeter): 30.01 inches Hg (1016.3 mb)
[Sea-level pressure: 1018.0 mb]
Winds: from the N (350 degrees) at 7 MPH (6 knots; 3.1 m/s)
Visibility: 10 or more miles (16+ km)
Ceiling: 4300 feet AGL
Clouds: scattered clouds at 1500 feet AGL
overcast cloud deck at 4300 feet AGL
Weather: no significant weather observed at this time

METAR text: KMSP 122027Z 35007KT 10SM SCT015 OVC044 M08/M12 A3001 RMK AO2 T10781117
Conditions at: KMSP (MINNEAPOLIS , MN, US) observed 2027 UTC 12 December 2019
Temperature: -7.8°C (18°F)
Dewpoint: -11.7°C (11°F) [RH = 74%]
Pressure (altimeter): 30.01 inches Hg (1016.3 mb)
Winds: from the N (350 degrees) at 8 MPH (7 knots; 3.6 m/s)
Visibility: 10 or more miles (16+ km)
Ceiling: 4400 feet AGL
Clouds: scattered clouds at 1500 feet AGL
overcast cloud deck at 4400 feet AGL
Weather: no significant weather observed at this time

METAR text: KMSP 122016Z 01005KT 10SM BKN015 OVC044 M08/M12 A3001 RMK AO2 T10781117
Conditions at: KMSP (MINNEAPOLIS , MN, US) observed 2016 UTC 12 December 2019
Temperature: -7.8°C (18°F)
Dewpoint: -11.7°C (11°F) [RH = 74%]
Pressure (altimeter): 30.01 inches Hg (1016.3 mb)
Winds: from the N (10 degrees) at 6 MPH (5 knots; 2.6 m/s)
Visibility: 10 or more miles (16+ km)
Ceiling: 1500 feet AGL
Clouds: broken clouds at 1500 feet AGL
overcast cloud deck at 4400 feet AGL
Weather: no significant weather observed at this time

METAR text: KMSP 122005Z 36006KT 10SM BKN014 OVC046 M08/M12 A3000 RMK AO2 T10781117
Conditions at: KMSP (MINNEAPOLIS , MN, US) observed 2005 UTC 12 December 2019
Temperature: -7.8°C (18°F)
Dewpoint: -11.7°C (11°F) [RH = 74%]
Pressure (altimeter): 30.00 inches Hg (1016.0 mb)
Winds: from the N (360 degrees) at 7 MPH (6 knots; 3.1 m/s)
Visibility: 10 or more miles (16+ km)
Ceiling: 1400 feet AGL
Clouds: broken clouds at 1400 feet AGL
overcast cloud deck at 4600 feet AGL
Weather: no significant weather observed at this time

METAR text: KMSP 121957Z 36006KT 10SM BKN015 OVC046 M08/M12 A3001 RMK AO2 T10781117
Conditions at: KMSP (MINNEAPOLIS , MN, US) observed 1957 UTC 12 December 2019
Temperature: -7.8°C (18°F)
Dewpoint: -11.7°C (11°F) [RH = 74%]
Pressure (altimeter): 30.01 inches Hg (1016.3 mb)
Winds: from the N (360 degrees) at 7 MPH (6 knots; 3.1 m/s)
Visibility: 10 or more miles (16+ km)
Ceiling: 1500 feet AGL
Clouds: broken clouds at 1500 feet AGL
overcast cloud deck at 4600 feet AGL
Weather: no significant weather observed at this time

METAR text: KMSP 121953Z 33007KT 10SM SCT015 OVC046 M08/M12 A3001 RMK AO2 SLP181 T10781117
Conditions at: KMSP (MINNEAPOLIS , MN, US) observed 1953 UTC 12 December 2019
Temperature: -7.8°C (18°F)
Dewpoint: -11.7°C (11°F) [RH = 74%]
Pressure (altimeter): 30.01 inches Hg (1016.3 mb)
[Sea-level pressure: 1018.1 mb]
Winds: from the NNW (330 degrees) at 8 MPH (7 knots; 3.6 m/s)
Visibility: 10 or more miles (16+ km)
Ceiling: 4600 feet AGL
Clouds: scattered clouds at 1500 feet AGL
overcast cloud deck at 4600 feet AGL
Weather: no significant weather observed at this time

METAR text: KMSP 121853Z 36007KT 9SM FEW020 OVC050 M08/M12 A3001 RMK AO2 SNE50 SLP179 P0000 T10781117
Conditions at: KMSP (MINNEAPOLIS , MN, US) observed 1853 UTC 12 December 2019
Temperature: -7.8°C (18°F)
Dewpoint: -11.7°C (11°F) [RH = 74%]
Pressure (altimeter): 30.01 inches Hg (1016.3 mb)
[Sea-level pressure: 1017.9 mb]
Winds: from the N (360 degrees) at 8 MPH (7 knots; 3.6 m/s)
Visibility: 9 miles (14 km)
Ceiling: 5000 feet AGL
Clouds: few clouds at 2000 feet AGL
overcast cloud deck at 5000 feet AGL
Weather: no significant weather observed at this time

METAR text: KMSP 121757Z 02008KT 5SM -SN FEW027 OVC050 M08/M11 A3001 RMK AO2 P0000 T10781111
Conditions at: KMSP (MINNEAPOLIS , MN, US) observed 1757 UTC 12 December 2019
Temperature: -7.8°C (18°F)
Dewpoint: -11.1°C (12°F) [RH = 77%]
Pressure (altimeter): 30.01 inches Hg (1016.3 mb)
Winds: from the NNE (20 degrees) at 9 MPH (8 knots; 4.1 m/s)
Visibility: 5 miles ( 8 km)
Ceiling: 5000 feet AGL
Clouds: few clouds at 2700 feet AGL
overcast cloud deck at 5000 feet AGL
Weather: -SN  (light snow)

METAR text: KMSP 121753Z 02007KT 2SM -SN SCT027 OVC050 M08/M11 A3000 RMK AO2 SFC VIS 5 SLP178 4/008 P0002 60012 T10781111 11078 21100 58016
Conditions at: KMSP (MINNEAPOLIS , MN, US) observed 1753 UTC 12 December 2019
Temperature: -7.8°C (18°F)
Dewpoint: -11.1°C (12°F) [RH = 77%]
Pressure (altimeter): 30.00 inches Hg (1016.0 mb)
[Sea-level pressure: 1017.8 mb]
Winds: from the NNE (20 degrees) at 8 MPH (7 knots; 3.6 m/s)
Visibility: 2.00 miles (3.22 km)
Ceiling: 5000 feet AGL
Clouds: scattered clouds at 2700 feet AGL
overcast cloud deck at 5000 feet AGL
Weather: -SN  (light snow)

METAR text: KMSP 121726Z 03006KT 2SM R30L/5000VP6000FT -SN BKN020 OVC033 M08/M11 A3002 RMK AO2 P0002 T10831111
Conditions at: KMSP (MINNEAPOLIS , MN, US) observed 1726 UTC 12 December 2019
Temperature: -8.3°C (17°F)
Dewpoint: -11.1°C (12°F) [RH = 80%]
Pressure (altimeter): 30.02 inches Hg (1016.7 mb)
Winds: from the NNE (30 degrees) at 7 MPH (6 knots; 3.1 m/s)
Visibility: 2.00 miles (3.22 km)
Ceiling: 2000 feet AGL
Clouds: broken clouds at 2000 feet AGL
overcast cloud deck at 3300 feet AGL
Weather: -SN  (light snow)

METAR text: KMSP 121713Z 02007KT 3/4SM R30L/3500V5000FT -SN VV016 M08/M11 A3003 RMK AO2 SFC VIS 1 P0001 T10831111
Conditions at: KMSP (MINNEAPOLIS , MN, US) observed 1713 UTC 12 December 2019
Temperature: -8.3°C (17°F)
Dewpoint: -11.1°C (12°F) [RH = 80%]
Pressure (altimeter): 30.03 inches Hg (1017.0 mb)
Winds: from the NNE (20 degrees) at 8 MPH (7 knots; 3.6 m/s)
Visibility: 0.75 miles (1.21 km)
Ceiling: indefinite ceiling with vertical visibility of 1600 feet AGL
Clouds: obscured sky
Weather: -SN  (light snow)

METAR text: KMSP 121705Z 04006KT 1 1/4SM R30L/4500VP6000FT -SN OVC018 M09/M12 A3003 RMK AO2 TWR VIS 1 1/2 P0000 T10891117
Conditions at: KMSP (MINNEAPOLIS , MN, US) observed 1705 UTC 12 December 2019
Temperature: -8.9°C (16°F)
Dewpoint: -11.7°C (11°F) [RH = 80%]
Pressure (altimeter): 30.03 inches Hg (1017.0 mb)
Winds: from the NE (40 degrees) at 7 MPH (6 knots; 3.1 m/s)
Visibility: 1.25 miles (2.01 km)
Ceiling: 1800 feet AGL
Clouds: overcast cloud deck at 1800 feet AGL
Weather: -SN  (light snow)

METAR text: KMSP 121653Z 05007KT 1 1/2SM R30L/3000V5000FT -SN OVC018 M09/M12 A3003 RMK AO2 SLP187 P0003 T10891117
Conditions at: KMSP (MINNEAPOLIS , MN, US) observed 1653 UTC 12 December 2019
Temperature: -8.9°C (16°F)
Dewpoint: -11.7°C (11°F) [RH = 80%]
Pressure (altimeter): 30.03 inches Hg (1017.0 mb)
[Sea-level pressure: 1018.7 mb]
Winds: from the NE (50 degrees) at 8 MPH (7 knots; 3.6 m/s)
Visibility: 1.50 miles (2.41 km)
Ceiling: 1800 feet AGL
Clouds: overcast cloud deck at 1800 feet AGL
Weather: -SN  (light snow)

METAR text: KMSP 121624Z 06007KT 1 1/2SM R30L/3500V5500FT -SN BKN019 OVC028 M09/M12 A3003 RMK AO2 P0002 T10891117
Conditions at: KMSP (MINNEAPOLIS , MN, US) observed 1624 UTC 12 December 2019
Temperature: -8.9°C (16°F)
Dewpoint: -11.7°C (11°F) [RH = 80%]
Pressure (altimeter): 30.03 inches Hg (1017.0 mb)
Winds: from the ENE (60 degrees) at 8 MPH (7 knots; 3.6 m/s)
Visibility: 1.50 miles (2.41 km)
Ceiling: 1900 feet AGL
Clouds: broken clouds at 1900 feet AGL
overcast cloud deck at 2800 feet AGL
Weather: -SN  (light snow)

METAR text: KMSP 121553Z 06006KT 1SM R30L/3500VP6000FT -SN VV018 M09/M12 A3004 RMK AO2 PK WND 06026/1538 TWR VIS 1 1/2 SLP190 P0002 T10891117
Conditions at: KMSP (MINNEAPOLIS , MN, US) observed 1553 UTC 12 December 2019
Temperature: -8.9°C (16°F)
Dewpoint: -11.7°C (11°F) [RH = 80%]
Pressure (altimeter): 30.04 inches Hg (1017.4 mb)
[Sea-level pressure: 1019.0 mb]
Winds: from the ENE (60 degrees) at 7 MPH (6 knots; 3.1 m/s)
Visibility: 1.00 miles (1.61 km)
Ceiling: indefinite ceiling with vertical visibility of 1800 feet AGL
Clouds: obscured sky
Weather: -SN  (light snow)

METAR text: KMSP 121535Z 06009G15KT 1SM R30L/4500VP6000FT -SN VV020 M09/M12 A3004 RMK AO2 TWR VIS 1 1/2 P0001 T10891122
Conditions at: KMSP (MINNEAPOLIS , MN, US) observed 1535 UTC 12 December 2019
Temperature: -8.9°C (16°F)
Dewpoint: -12.2°C (10°F) [RH = 77%]
Pressure (altimeter): 30.04 inches Hg (1017.4 mb)
Winds: from the ENE (60 degrees) at 10 MPH (9 knots; 4.6 m/s)
gusting to 17 MPH (15 knots; 7.7 m/s)
Visibility: 1.00 miles (1.61 km)
Ceiling: indefinite ceiling with vertical visibility of 2000 feet AGL
Clouds: obscured sky
Weather: -SN  (light snow)

METAR text: KMSP 121513Z 06007KT 1 1/2SM R30L/6000VP6000FT -SN BKN028 OVC034 M09/M12 A3005 RMK AO2 TWR VIS 2 P0000 T10941122
Conditions at: KMSP (MINNEAPOLIS , MN, US) observed 1513 UTC 12 December 2019
Temperature: -9.4°C (15°F)
Dewpoint: -12.2°C (10°F) [RH = 80%]
Pressure (altimeter): 30.05 inches Hg (1017.7 mb)
Winds: from the ENE (60 degrees) at 8 MPH (7 knots; 3.6 m/s)
Visibility: 1.50 miles (2.41 km)
Ceiling: 2800 feet AGL
Clouds: broken clouds at 2800 feet AGL
overcast cloud deck at 3400 feet AGL
Weather: -SN  (light snow)

METAR text: KMSP 121453Z 06009KT 2SM R30L/5500VP6000FT -SN BKN025 OVC033 M10/M13 A3005 RMK AO2 SLP195 P0002 60005 T11001128 56017
Conditions at: KMSP (MINNEAPOLIS , MN, US) observed 1453 UTC 12 December 2019
Temperature: -10.0°C (14°F)
Dewpoint: -12.8°C ( 9°F) [RH = 80%]
Pressure (altimeter): 30.05 inches Hg (1017.7 mb)
[Sea-level pressure: 1019.5 mb]
Winds: from the ENE (60 degrees) at 10 MPH (9 knots; 4.6 m/s)
Visibility: 2.00 miles (3.22 km)
Ceiling: 2500 feet AGL
Clouds: broken clouds at 2500 feet AGL
overcast cloud deck at 3300 feet AGL
Weather: -SN  (light snow)

METAR text: KMSP 121441Z 06009G16KT 1 1/2SM R30L/5000VP6000FT -SN OVC025 M10/M13 A3006 RMK AO2 TWR VIS 2 P0001 T11001128
Conditions at: KMSP (MINNEAPOLIS , MN, US) observed 1441 UTC 12 December 2019
Temperature: -10.0°C (14°F)
Dewpoint: -12.8°C ( 9°F) [RH = 80%]
Pressure (altimeter): 30.06 inches Hg (1018.0 mb)
Winds: from the ENE (60 degrees) at 10 MPH (9 knots; 4.6 m/s)
gusting to 18 MPH (16 knots; 8.2 m/s)
Visibility: 1.50 miles (2.41 km)
Ceiling: 2500 feet AGL
Clouds: overcast cloud deck at 2500 feet AGL
Weather: -SN  (light snow)

METAR text: KMSP 121430Z 07008G18KT 2SM -SN OVC029 M10/M13 A3006 RMK AO2 SFC VIS 2 1/2 P0001 T11001128
Conditions at: KMSP (MINNEAPOLIS , MN, US) observed 1430 UTC 12 December 2019
Temperature: -10.0°C (14°F)
Dewpoint: -12.8°C ( 9°F) [RH = 80%]
Pressure (altimeter): 30.06 inches Hg (1018.0 mb)
Winds: from the ENE (70 degrees) at 9 MPH (8 knots; 4.1 m/s)
gusting to 21 MPH (18 knots; 9.3 m/s)
Visibility: 2.00 miles (3.22 km)
Ceiling: 2900 feet AGL
Clouds: overcast cloud deck at 2900 feet AGL
Weather: -SN  (light snow)

METAR text: KMSP 121414Z 06008KT 2SM R30L/5500VP6000FT -SN OVC032 M10/M13 A3006 RMK AO2 P0001 T11001128
Conditions at: KMSP (MINNEAPOLIS , MN, US) observed 1414 UTC 12 December 2019
Temperature: -10.0°C (14°F)
Dewpoint: -12.8°C ( 9°F) [RH = 80%]
Pressure (altimeter): 30.06 inches Hg (1018.0 mb)
Winds: from the ENE (60 degrees) at 9 MPH (8 knots; 4.1 m/s)
Visibility: 2.00 miles (3.22 km)
Ceiling: 3200 feet AGL
Clouds: overcast cloud deck at 3200 feet AGL
Weather: -SN  (light snow)

METAR text: KMSP 121407Z 06009KT 3SM -SN OVC032 M10/M13 A3006 RMK AO2 P0000 T11001128
Conditions at: KMSP (MINNEAPOLIS , MN, US) observed 1407 UTC 12 December 2019
Temperature: -10.0°C (14°F)
Dewpoint: -12.8°C ( 9°F) [RH = 80%]
Pressure (altimeter): 30.06 inches Hg (1018.0 mb)
Winds: from the ENE (60 degrees) at 10 MPH (9 knots; 4.6 m/s)
Visibility: 3 miles ( 5 km)
Ceiling: 3200 feet AGL
Clouds: overcast cloud deck at 3200 feet AGL
Weather: -SN  (light snow)

METAR text: KMSP 121403Z 06008KT 2SM -SN FEW022 OVC032 M10/M13 A3006 RMK AO2 SFC VIS 3 P0000 T11001128
Conditions at: KMSP (MINNEAPOLIS , MN, US) observed 1403 UTC 12 December 2019
Temperature: -10.0°C (14°F)
Dewpoint: -12.8°C ( 9°F) [RH = 80%]
Pressure (altimeter): 30.06 inches Hg (1018.0 mb)
Winds: from the ENE (60 degrees) at 9 MPH (8 knots; 4.1 m/s)
Visibility: 2.00 miles (3.22 km)
Ceiling: 3200 feet AGL
Clouds: few clouds at 2200 feet AGL
overcast cloud deck at 3200 feet AGL
Weather: -SN  (light snow)

METAR text: KMSP 121353Z 05008KT 1 1/2SM -SN SCT018 OVC032 M10/M13 A3007 RMK AO2 SLP200 P0003 T11001128
Conditions at: KMSP (MINNEAPOLIS , MN, US) observed 1353 UTC 12 December 2019
Temperature: -10.0°C (14°F)
Dewpoint: -12.8°C ( 9°F) [RH = 80%]
Pressure (altimeter): 30.07 inches Hg (1018.4 mb)
[Sea-level pressure: 1020.0 mb]
Winds: from the NE (50 degrees) at 9 MPH (8 knots; 4.1 m/s)
Visibility: 1.50 miles (2.41 km)
Ceiling: 3200 feet AGL
Clouds: scattered clouds at 1800 feet AGL
overcast cloud deck at 3200 feet AGL
Weather: -SN  (light snow)

METAR text: KMSP 121351Z 05008KT 1 1/2SM -SN SCT018 OVC032 M10/M13 A3007 RMK AO2 P0003
Conditions at: KMSP (MINNEAPOLIS , MN, US) observed 1351 UTC 12 December 2019
Temperature: -10.0°C (14°F)
Dewpoint: -13.0°C ( 9°F) [RH = 79%]
Pressure (altimeter): 30.07 inches Hg (1018.4 mb)
Winds: from the NE (50 degrees) at 9 MPH (8 knots; 4.1 m/s)
Visibility: 1.50 miles (2.41 km)
Ceiling: 3200 feet AGL
Clouds: scattered clouds at 1800 feet AGL
overcast cloud deck at 3200 feet AGL
Weather: -SN  (light snow)

METAR text: KMSP 121341Z 05009KT 1 1/4SM -SN BKN016 OVC032 M10/M13 A3006 RMK AO2 TWR VIS 1 1/2 P0003 T11001128
Conditions at: KMSP (MINNEAPOLIS , MN, US) observed 1341 UTC 12 December 2019
Temperature: -10.0°C (14°F)
Dewpoint: -12.8°C ( 9°F) [RH = 80%]
Pressure (altimeter): 30.06 inches Hg (1018.0 mb)
Winds: from the NE (50 degrees) at 10 MPH (9 knots; 4.6 m/s)
Visibility: 1.25 miles (2.01 km)
Ceiling: 1600 feet AGL
Clouds: broken clouds at 1600 feet AGL
overcast cloud deck at 3200 feet AGL
Weather: -SN  (light snow)

METAR text: KMSP 121334Z 05007KT 1 1/2SM -SN OVC014 M10/M13 A3007 RMK AO2 P0002 T11001128
Conditions at: KMSP (MINNEAPOLIS , MN, US) observed 1334 UTC 12 December 2019
Temperature: -10.0°C (14°F)
Dewpoint: -12.8°C ( 9°F) [RH = 80%]
Pressure (altimeter): 30.07 inches Hg (1018.4 mb)
Winds: from the NE (50 degrees) at 8 MPH (7 knots; 3.6 m/s)
Visibility: 1.50 miles (2.41 km)
Ceiling: 1400 feet AGL
Clouds: overcast cloud deck at 1400 feet AGL
Weather: -SN  (light snow)

METAR text: KMSP 121312Z 09008KT 1SM R30L/P6000FT -SN BKN014 OVC027 M10/M13 A3007 RMK AO2 TWR VIS 1 1/2 P0001 T11001128
Conditions at: KMSP (MINNEAPOLIS , MN, US) observed 1312 UTC 12 December 2019
Temperature: -10.0°C (14°F)
Dewpoint: -12.8°C ( 9°F) [RH = 80%]
Pressure (altimeter): 30.07 inches Hg (1018.4 mb)
Winds: from the E (90 degrees) at 9 MPH (8 knots; 4.1 m/s)
Visibility: 1.00 miles (1.61 km)
Ceiling: 1400 feet AGL
Clouds: broken clouds at 1400 feet AGL
overcast cloud deck at 2700 feet AGL
Weather: -SN  (light snow)

METAR text: KMSP 121304Z 09010KT 1 1/4SM -SN BKN016 OVC027 M10/M13 A3007 RMK AO2 TWR VIS 1 1/2 P0000 T11001133
Conditions at: KMSP (MINNEAPOLIS , MN, US) observed 1304 UTC 12 December 2019
Temperature: -10.0°C (14°F)
Dewpoint: -13.3°C ( 8°F) [RH = 77%]
Pressure (altimeter): 30.07 inches Hg (1018.4 mb)
Winds: from the E (90 degrees) at 12 MPH (10 knots; 5.1 m/s)
Visibility: 1.25 miles (2.01 km)
Ceiling: 1600 feet AGL
Clouds: broken clouds at 1600 feet AGL
overcast cloud deck at 2700 feet AGL
Weather: -SN  (light snow)

METAR text: KMSP 121253Z 09010KT 4SM -SN BKN027 OVC032 M10/M14 A3008 RMK AO2 SNB38 SLP203 P0000 T11001139
Conditions at: KMSP (MINNEAPOLIS , MN, US) observed 1253 UTC 12 December 2019
Temperature: -10.0°C (14°F)
Dewpoint: -13.9°C ( 7°F) [RH = 73%]
Pressure (altimeter): 30.08 inches Hg (1018.7 mb)
[Sea-level pressure: 1020.3 mb]
Winds: from the E (90 degrees) at 12 MPH (10 knots; 5.1 m/s)
Visibility: 4 miles ( 6 km)
Ceiling: 2700 feet AGL
Clouds: broken clouds at 2700 feet AGL
overcast cloud deck at 3200 feet AGL
Weather: -SN  (light snow)

METAR text: KMSP 121235Z 09010KT 7SM BKN028 BKN035 OVC042 M09/M14 A3008 RMK AO2 T10941144
Conditions at: KMSP (MINNEAPOLIS , MN, US) observed 1235 UTC 12 December 2019
Temperature: -9.4°C (15°F)
Dewpoint: -14.4°C ( 6°F) [RH = 67%]
Pressure (altimeter): 30.08 inches Hg (1018.7 mb)
Winds: from the E (90 degrees) at 12 MPH (10 knots; 5.1 m/s)
Visibility: 7 miles (11 km)
Ceiling: 2800 feet AGL
Clouds: broken clouds at 2800 feet AGL
broken clouds at 3500 feet AGL
overcast cloud deck at 4200 feet AGL
Weather: no significant weather observed at this time

METAR text: KMSP 121153Z 10009G18KT 10SM OVC047 M09/M15 A3010 RMK AO2 SLP213 4/007 T10941150 11094 21133 56038
Conditions at: KMSP (MINNEAPOLIS , MN, US) observed 1153 UTC 12 December 2019
Temperature: -9.4°C (15°F)
Dewpoint: -15.0°C ( 5°F) [RH = 64%]
Pressure (altimeter): 30.10 inches Hg (1019.4 mb)
[Sea-level pressure: 1021.3 mb]
Winds: from the E (100 degrees) at 10 MPH (9 knots; 4.6 m/s)
gusting to 21 MPH (18 knots; 9.3 m/s)
Visibility: 10 or more miles (16+ km)
Ceiling: 4700 feet AGL
Clouds: overcast cloud deck at 4700 feet AGL
Weather: no significant weather observed at this time

METAR text: KMSP 121053Z 10011KT 10SM OVC055 M10/M16 A3014 RMK AO2 SLP225 T11001161
Conditions at: KMSP (MINNEAPOLIS , MN, US) observed 1053 UTC 12 December 2019
Temperature: -10.0°C (14°F)
Dewpoint: -16.1°C ( 3°F) [RH = 61%]
Pressure (altimeter): 30.14 inches Hg (1020.7 mb)
[Sea-level pressure: 1022.5 mb]
Winds: from the E (100 degrees) at 13 MPH (11 knots; 5.7 m/s)
Visibility: 10 or more miles (16+ km)
Ceiling: 5500 feet AGL
Clouds: overcast cloud deck at 5500 feet AGL
Weather: no significant weather observed at this time

METAR text: KMSP 120953Z 09009KT 10SM OVC060 M11/M17 A3018 RMK AO2 SLP238 T11111167
Conditions at: KMSP (MINNEAPOLIS , MN, US) observed 0953 UTC 12 December 2019
Temperature: -11.1°C (12°F)
Dewpoint: -16.7°C ( 2°F) [RH = 63%]
Pressure (altimeter): 30.18 inches Hg (1022.1 mb)
[Sea-level pressure: 1023.8 mb]
Winds: from the E (90 degrees) at 10 MPH (9 knots; 4.6 m/s)
Visibility: 10 or more miles (16+ km)
Ceiling: 6000 feet AGL
Clouds: overcast cloud deck at 6000 feet AGL
Weather: no significant weather observed at this time

METAR text: KMSP 120853Z 10009KT 10SM OVC060 M12/M17 A3022 RMK AO2 PRESFR SLP253 T11171172 58038
Conditions at: KMSP (MINNEAPOLIS , MN, US) observed 0853 UTC 12 December 2019
Temperature: -11.7°C (11°F)
Dewpoint: -17.2°C ( 1°F) [RH = 64%]
Pressure (altimeter): 30.22 inches Hg (1023.5 mb)
[Sea-level pressure: 1025.3 mb]
Winds: from the E (100 degrees) at 10 MPH (9 knots; 4.6 m/s)
Visibility: 10 or more miles (16+ km)
Ceiling: 6000 feet AGL
Clouds: overcast cloud deck at 6000 feet AGL
Weather: no significant weather observed at this time

METAR text: KMSP 120753Z 10009KT 10SM BKN035 OVC065 M12/M18 A3027 RMK AO2 SLP270 T11221183
Conditions at: KMSP (MINNEAPOLIS , MN, US) observed 0753 UTC 12 December 2019
Temperature: -12.2°C (10°F)
Dewpoint: -18.3°C (-1°F) [RH = 60%]
Pressure (altimeter): 30.27 inches Hg (1025.1 mb)
[Sea-level pressure: 1027.0 mb]
Winds: from the E (100 degrees) at 10 MPH (9 knots; 4.6 m/s)
Visibility: 10 or more miles (16+ km)
Ceiling: 3500 feet AGL
Clouds: broken clouds at 3500 feet AGL
overcast cloud deck at 6500 feet AGL
Weather: no significant weather observed at this time

METAR text: KMSP 120653Z 10007KT 10SM OVC160 M13/M18 A3030 RMK AO2 SLP282 T11281183
Conditions at: KMSP (MINNEAPOLIS , MN, US) observed 0653 UTC 12 December 2019
Temperature: -12.8°C ( 9°F)
Dewpoint: -18.3°C (-1°F) [RH = 63%]
Pressure (altimeter): 30.30 inches Hg (1026.2 mb)
[Sea-level pressure: 1028.2 mb]
Winds: from the E (100 degrees) at 8 MPH (7 knots; 3.6 m/s)
Visibility: 10 or more miles (16+ km)
Ceiling: 16000 feet AGL
Clouds: overcast cloud deck at 16000 feet AGL
Weather: no significant weather observed at this time

METAR text: KMSP 120553Z 11009KT 10SM BKN060 OVC160 M13/M19 A3034 RMK AO2 SLP294 4/007 T11331189 11128 21144 411281206 56019
Conditions at: KMSP (MINNEAPOLIS , MN, US) observed 0553 UTC 12 December 2019
Temperature: -13.3°C ( 8°F)
Dewpoint: -18.9°C (-2°F) [RH = 63%]
Pressure (altimeter): 30.34 inches Hg (1027.5 mb)
[Sea-level pressure: 1029.4 mb]
Winds: from the ESE (110 degrees) at 10 MPH (9 knots; 4.6 m/s)
Visibility: 10 or more miles (16+ km)
Ceiling: 6000 feet AGL
Clouds: broken clouds at 6000 feet AGL
overcast cloud deck at 16000 feet AGL
Weather: no significant weather observed at this time

METAR text: KMSP 120453Z 11008KT 10SM FEW060 OVC160 M13/M19 A3035 RMK AO2 SLP302 T11331194
Conditions at: KMSP (MINNEAPOLIS , MN, US) observed 0453 UTC 12 December 2019
Temperature: -13.3°C ( 8°F)
Dewpoint: -19.4°C (-3°F) [RH = 60%]
Pressure (altimeter): 30.35 inches Hg (1027.9 mb)
[Sea-level pressure: 1030.2 mb]
Winds: from the ESE (110 degrees) at 9 MPH (8 knots; 4.1 m/s)
Visibility: 10 or more miles (16+ km)
Ceiling: 16000 feet AGL
Clouds: few clouds at 6000 feet AGL
overcast cloud deck at 16000 feet AGL
Weather: no significant weather observed at this time

METAR text: KMSP 120353Z 12009KT 10SM OVC060 M13/M20 A3037 RMK AO2 SLP306 T11331200
Conditions at: KMSP (MINNEAPOLIS , MN, US) observed 0353 UTC 12 December 2019
Temperature: -13.3°C ( 8°F)
Dewpoint: -20.0°C (-4°F) [RH = 57%]
Pressure (altimeter): 30.37 inches Hg (1028.5 mb)
[Sea-level pressure: 1030.6 mb]
Winds: from the ESE (120 degrees) at 10 MPH (9 knots; 4.6 m/s)
Visibility: 10 or more miles (16+ km)
Ceiling: 6000 feet AGL
Clouds: overcast cloud deck at 6000 feet AGL
Weather: no significant weather observed at this time

METAR text: KMSP 120253Z 13006KT 10SM OVC075 M14/M21 A3039 RMK AO2 SLP316 T11391211 58015
Conditions at: KMSP (MINNEAPOLIS , MN, US) observed 0253 UTC 12 December 2019
Temperature: -13.9°C ( 7°F)
Dewpoint: -21.1°C (-6°F) [RH = 54%]
Pressure (altimeter): 30.39 inches Hg (1029.2 mb)
[Sea-level pressure: 1031.6 mb]
Winds: from the SE (130 degrees) at 7 MPH (6 knots; 3.1 m/s)
Visibility: 10 or more miles (16+ km)
Ceiling: 7500 feet AGL
Clouds: overcast cloud deck at 7500 feet AGL
Weather: no significant weather observed at this time

Forecast for: KMSP (MINNEAPOLIS , MN, US)
Text: KMSP 131401Z 1314/1418 VRB02KT 5SM BR SCT080 BKN120
Forecast period: 1400 to 1700 UTC 13 December 2019
Forecast type: FROM: standard forecast or significant change
Winds: variable direction winds at 2 MPH (2 knots; 1.0 m/s)
Visibility: 5 miles (8 km)
Ceiling: 12000 feet AGL
Clouds: scattered clouds at 8000 feet AGL
broken clouds at 12000 feet AGL
Weather: BR  (mist)
Text: TEMPO 1314/1315 1SM BR
Forecast period: 1400 to 1500 UTC 13 December 2019
Forecast type: TEMPORARY: The following changes expected for less than half the time period
Visibility: 1.00 miles (1.61 km)
Ceiling: unknown
Clouds: missing
Weather: BR  (mist)
Text: FM131700 14005KT P6SM VCSH OVC022
Forecast period: 1700 to 2000 UTC 13 December 2019
Forecast type: FROM: standard forecast or significant change
Winds: from the SE (140 degrees) at 6 MPH (5 knots; 2.6 m/s)
Visibility: 6 or more miles 10+ km)
Ceiling: 2200 feet AGL
Clouds: overcast cloud deck at 2200 feet AGL
Weather: VCSH  (showers in vicinity)
Text: TEMPO 1317/1320 1 1/2SM -SN BR OVC018
Forecast period: 1700 to 2000 UTC 13 December 2019
Forecast type: TEMPORARY: The following changes expected for less than half the time period
Visibility: 1.50 miles (2.41 km)
Ceiling: 1800 feet AGL
Clouds: overcast cloud deck at 1800 feet AGL
Weather: -SN BR  (light snow, mist)
Text: FM132000 15005KT P6SM VCSH OVC007
Forecast period: 2000 UTC 13 December 2019 to 0500 UTC 14 December 2019
Forecast type: FROM: standard forecast or significant change
Winds: from the SSE (150 degrees) at 6 MPH (5 knots; 2.6 m/s)
Visibility: 6 or more miles 10+ km)
Ceiling: 700 feet AGL
Clouds: overcast cloud deck at 700 feet AGL
Weather: VCSH  (showers in vicinity)
Text: FM140500 30009KT P6SM OVC015
Forecast period: 0500 to 1800 UTC 14 December 2019
Forecast type: FROM: standard forecast or significant change
Winds: from the WNW (300 degrees) at 10 MPH (9 knots; 4.6 m/s)
Visibility: 6 or more miles 10+ km)
Ceiling: 1500 feet AGL
Clouds: overcast cloud deck at 1500 feet AGL
Weather: no significant weather forecast for this period